Time;durP1;ratioP1;P1;durP2;ratioP2;P2;SDS_P1;SDS_P2;PMS_P1;PMS_P2;Temp;Humidity;BMP_temperature;BMP_pressure;BME280_temperature;BME280_humidity;BME280_pressure;Samples;Min_cycle;Max_cycle;Signal;HPM_P1;HPM_P2
2024/03/03 00:02:20;;;;;;;0.70;0.70;;;3.80;67.50;;;;;;4976792;28;20047;-77
2024/03/03 00:04:47;;;;;;;0.85;0.60;;;3.70;39.80;;;;;;4962312;28;20054;-78
2024/03/03 00:07:15;;;;;;;1.30;0.90;;;3.70;41.40;;;;;;4948248;28;20103;-78
2024/03/03 00:09:45;;;;;;;1.33;0.77;;;3.70;64.90;;;;;;4942722;28;20143;-78
2024/03/03 00:12:12;;;;;;;2.08;0.90;;;3.60;99.90;;;;;;4940108;29;20059;-78
2024/03/03 00:14:39;;;;;;;0.80;0.70;;;3.60;99.90;;;;;;4941366;29;20109;-78
2024/03/03 00:17:06;;;;;;;0.52;0.45;;;3.60;99.90;;;;;;4942212;28;20628;-78
2024/03/03 00:19:33;;;;;;;0.50;0.50;;;3.60;99.90;;;;;;4942756;29;20502;-78
2024/03/03 00:21:59;;;;;;;0.80;0.73;;;3.60;99.90;;;;;;4943601;28;20057;-79
2024/03/03 00:24:26;;;;;;;0.93;0.65;;;3.60;99.90;;;;;;4945412;28;20065;-78
2024/03/03 00:26:53;;;;;;;2.13;1.02;;;3.60;99.90;;;;;;4940859;28;20070;-78
2024/03/03 00:29:20;;;;;;;0.98;0.65;;;3.50;99.90;;;;;;4964969;28;20074;-79
2024/03/03 00:31:48;;;;;;;0.60;0.60;;;3.60;1.00;;;;;;4964650;28;20070;-78
2024/03/03 00:34:14;;;;;;;0.60;0.60;;;3.60;1.00;;;;;;4948996;28;20426;-78
2024/03/03 00:36:41;;;;;;;0.52;0.50;;;3.50;1.00;;;;;;4963205;28;20050;-78
2024/03/03 00:39:08;;;;;;;0.80;0.50;;;3.50;1.00;;;;;;4963926;28;20078;-78
2024/03/03 00:41:35;;;;;;;0.93;0.60;;;3.50;1.00;;;;;;4962877;28;20481;-78
2024/03/03 00:44:02;;;;;;;0.57;0.57;;;3.50;1.00;;;;;;4964329;28;20118;-78
2024/03/03 00:46:30;;;;;;;0.77;0.70;;;3.50;1.00;;;;;;4947842;28;20062;-78
2024/03/03 00:48:56;;;;;;;0.68;0.65;;;3.50;1.00;;;;;;4948217;28;20050;-78
2024/03/03 00:51:24;;;;;;;0.90;0.60;;;3.40;1.00;;;;;;4963291;28;20051;-78
2024/03/03 00:53:51;;;;;;;0.75;0.60;;;3.40;1.00;;;;;;4963482;28;20046;-78
2024/03/03 00:56:18;;;;;;;0.80;0.70;;;3.40;1.00;;;;;;4946988;28;20081;-78
2024/03/03 00:58:45;;;;;;;0.93;0.88;;;3.40;91.40;;;;;;4962973;28;20047;-78
2024/03/03 01:01:14;;;;;;;0.70;0.50;;;3.40;99.90;;;;;;4947073;28;20073;-78
2024/03/03 01:03:42;;;;;;;0.70;0.60;;;3.40;99.90;;;;;;4946046;28;20787;-78
2024/03/03 01:06:08;;;;;;;1.23;0.80;;;3.40;99.90;;;;;;4962003;28;20082;-79
2024/03/03 01:08:35;;;;;;;0.60;0.60;;;3.40;99.90;;;;;;4947961;28;20054;-78
2024/03/03 01:11:02;;;;;;;1.00;0.60;;;3.30;1.00;;;;;;4961897;28;20061;-78
2024/03/03 01:13:29;;;;;;;1.00;0.90;;;3.30;9.00;;;;;;4962663;28;20109;-78
2024/03/03 01:15:57;;;;;;;0.40;0.40;;;3.20;9.30;;;;;;4963322;28;20055;-79
2024/03/03 01:18:24;;;;;;;0.60;0.60;;;3.20;99.90;;;;;;4962929;28;20157;-78
2024/03/03 01:20:51;;;;;;;0.70;0.60;;;3.20;99.90;;;;;;4963205;28;20090;-77
2024/03/03 01:23:18;;;;;;;0.90;0.70;;;3.20;99.90;;;;;;4962794;28;20639;-78
2024/03/03 01:25:46;;;;;;;0.60;0.60;;;3.10;99.90;;;;;;4944747;28;20133;-77
2024/03/03 01:28:13;;;;;;;1.45;0.90;;;3.10;99.90;;;;;;4942893;29;20129;-77
2024/03/03 01:30:39;;;;;;;0.68;0.57;;;3.10;99.90;;;;;;4945278;28;20160;-77
2024/03/03 01:33:07;;;;;;;0.60;0.55;;;3.00;44.20;;;;;;4950199;28;20050;-77
2024/03/03 01:35:33;;;;;;;0.68;0.60;;;3.00;99.90;;;;;;4950555;28;20053;-77
2024/03/03 01:38:00;;;;;;;0.73;0.70;;;3.00;99.90;;;;;;4985298;28;20169;-77
2024/03/03 01:40:27;;;;;;;0.98;0.68;;;2.90;92.50;;;;;;5001430;28;20069;-77
2024/03/03 01:42:58;;;;;;;0.63;0.63;;;2.90;99.90;;;;;;4985491;28;20053;-78
2024/03/03 01:45:26;;;;;;;0.50;0.50;;;2.90;99.90;;;;;;4985655;28;20057;-78
2024/03/03 01:47:54;;;;;;;1.13;0.90;;;2.80;99.90;;;;;;4983446;28;20050;-77
2024/03/03 01:50:21;;;;;;;1.77;0.80;;;2.80;99.90;;;;;;4950099;28;20050;-77
2024/03/03 01:52:48;;;;;;;0.95;0.60;;;2.80;99.90;;;;;;4949561;28;20054;-78
2024/03/03 01:55:20;;;;;;;0.63;0.57;;;2.80;98.50;;;;;;4966422;28;20497;-77
2024/03/03 01:57:52;;;;;;;0.90;0.52;;;2.70;93.20;;;;;;4950065;28;20563;-78
2024/03/03 02:00:20;;;;;;;0.60;0.60;;;2.70;99.90;;;;;;4967284;28;20058;-78
2024/03/03 02:02:48;;;;;;;0.70;0.50;;;2.70;83.30;;;;;;4983630;28;20113;-78
2024/03/03 02:05:15;;;;;;;1.85;0.77;;;2.70;99.90;;;;;;4949798;28;20058;-78
2024/03/03 02:07:42;;;;;;;0.68;0.60;;;2.60;99.90;;;;;;4949713;28;20066;-77
2024/03/03 02:10:09;;;;;;;0.47;0.47;;;2.60;99.90;;;;;;4965693;28;20054;-78
2024/03/03 02:12:36;;;;;;;0.85;0.70;;;2.60;99.90;;;;;;4948188;28;20137;-78
2024/03/03 02:15:04;;;;;;;0.73;0.60;;;2.60;99.90;;;;;;4966071;28;20054;-78
2024/03/03 02:17:31;;;;;;;0.85;0.70;;;2.60;99.90;;;;;;4965733;28;20050;-77
2024/03/03 02:19:58;;;;;;;0.50;0.50;;;2.50;99.90;;;;;;4950461;28;20624;-78
2024/03/03 02:22:25;;;;;;;0.75;0.75;;;2.50;1.00;;;;;;4985191;28;20098;-78
2024/03/03 02:24:52;;;;;;;0.57;0.50;;;2.50;1.00;;;;;;5003395;28;20389;-78
2024/03/03 02:27:19;;;;;;;0.50;0.50;;;2.50;1.00;;;;;;4970219;28;20596;-78
2024/03/03 02:29:46;;;;;;;1.25;1.15;;;2.50;99.90;;;;;;4949483;28;20129;-78
2024/03/03 02:32:13;;;;;;;0.75;0.60;;;2.50;99.90;;;;;;5002154;28;20061;-78
2024/03/03 02:34:40;;;;;;;0.40;0.40;;;2.40;1.00;;;;;;4969027;28;20086;-78
2024/03/03 02:37:07;;;;;;;0.52;0.40;;;2.40;1.00;;;;;;4984038;28;20050;-77
2024/03/03 02:39:34;;;;;;;0.73;0.60;;;2.40;10.90;;;;;;4984375;28;20050;-78
2024/03/03 02:42:01;;;;;;;0.50;0.50;;;2.50;99.90;;;;;;4949571;28;20096;-78
2024/03/03 02:44:28;;;;;;;0.85;0.70;;;2.50;99.90;;;;;;4950495;28;20061;-78
2024/03/03 02:46:55;;;;;;;0.50;0.50;;;2.50;99.90;;;;;;4950654;28;20149;-78
2024/03/03 02:49:22;;;;;;;0.65;0.60;;;2.50;99.90;;;;;;4984148;28;20114;-78
2024/03/03 02:51:50;;;;;;;0.50;0.50;;;2.50;99.90;;;;;;4966299;28;20065;-77
2024/03/03 02:54:17;;;;;;;1.20;0.50;;;2.50;99.90;;;;;;4951089;28;20055;-77
2024/03/03 02:56:44;;;;;;;0.60;0.50;;;2.50;99.90;;;;;;4949497;28;20062;-77
2024/03/03 02:59:11;;;;;;;1.05;0.63;;;2.50;99.90;;;;;;4950661;28;20069;-77
2024/03/03 03:01:38;;;;;;;0.50;0.50;;;2.50;99.90;;;;;;4935079;28;20456;-77
2024/03/03 03:04:05;;;;;;;0.63;0.45;;;2.40;29.10;;;;;;4983893;28;20050;-77
2024/03/03 03:06:32;;;;;;;0.73;0.50;;;2.40;99.90;;;;;;4983960;28;20050;-78
2024/03/03 03:08:59;;;;;;;1.58;0.90;;;2.40;99.90;;;;;;4934894;28;20050;-77
2024/03/03 03:11:26;;;;;;;0.40;0.38;;;2.40;99.90;;;;;;4965880;28;20417;-78
2024/03/03 03:13:53;;;;;;;0.40;0.40;;;2.40;99.90;;;;;;4950012;28;20049;-78
2024/03/03 03:16:19;;;;;;;1.55;0.70;;;2.40;99.90;;;;;;4966041;28;20645;-78
2024/03/03 03:18:46;;;;;;;0.98;0.43;;;2.30;99.90;;;;;;4967064;28;20054;-78
2024/03/03 03:21:13;;;;;;;0.80;0.60;;;2.40;99.90;;;;;;4934762;28;20050;-78
2024/03/03 03:23:40;;;;;;;0.50;0.50;;;2.40;99.90;;;;;;4969940;28;20104;-78
2024/03/03 03:26:07;;;;;;;0.50;0.50;;;2.40;99.90;;;;;;4995451;28;20050;-78
2024/03/03 03:28:35;;;;;;;0.50;0.50;;;2.40;99.90;;;;;;4967606;28;20386;-78
2024/03/03 03:31:03;;;;;;;0.70;0.50;;;2.40;99.90;;;;;;4985717;28;20241;-78
2024/03/03 03:33:30;;;;;;;0.52;0.50;;;2.30;99.90;;;;;;4973863;28;20467;-78
2024/03/03 03:35:57;;;;;;;0.68;0.68;;;2.30;99.90;;;;;;4934367;28;20088;-77
2024/03/03 03:38:24;;;;;;;0.40;0.40;;;2.30;99.90;;;;;;4983204;28;20454;-78
2024/03/03 03:40:51;;;;;;;0.57;0.50;;;2.30;99.90;;;;;;4965876;28;20062;-78
2024/03/03 03:43:18;;;;;;;0.68;0.45;;;2.30;99.90;;;;;;4981089;28;20066;-77
2024/03/03 03:45:45;;;;;;;0.50;0.50;;;2.30;99.90;;;;;;4965871;28;20050;-78
2024/03/03 03:48:12;;;;;;;0.40;0.35;;;2.30;99.90;;;;;;4985183;28;20062;-77
2024/03/03 03:50:39;;;;;;;0.40;0.40;;;2.30;99.90;;;;;;4984445;28;20054;-78
2024/03/03 03:53:07;;;;;;;0.43;0.43;;;2.20;97.90;;;;;;4985418;28;20056;-78
2024/03/03 03:55:34;;;;;;;0.30;0.30;;;2.20;95.90;;;;;;4984600;28;20054;-78
2024/03/03 03:58:00;;;;;;;0.47;0.47;;;2.10;52.30;;;;;;4999997;28;20119;-79
2024/03/03 04:00:27;;;;;;;0.63;0.50;;;2.10;74.20;;;;;;4985005;28;20042;-77
2024/03/03 04:02:54;;;;;;;0.60;0.60;;;2.10;99.90;;;;;;4985460;28;20046;-77
2024/03/03 04:05:21;;;;;;;0.50;0.50;;;2.10;99.90;;;;;;4984988;28;20061;-78
2024/03/03 04:07:48;;;;;;;0.30;0.30;;;2.10;99.90;;;;;;5001029;28;20073;-78
2024/03/03 04:10:17;;;;;;;0.60;0.60;;;2.10;99.90;;;;;;4985229;28;20046;-77
2024/03/03 04:12:44;;;;;;;0.70;0.55;;;2.10;99.90;;;;;;5000662;28;20077;-77
2024/03/03 04:15:15;;;;;;;1.83;0.80;;;2.10;99.90;;;;;;4985487;28;20511;-77
2024/03/03 04:17:41;;;;;;;0.57;0.50;;;2.10;99.90;;;;;;4968699;28;20117;-77
2024/03/03 04:20:09;;;;;;;0.40;0.40;;;2.10;99.90;;;;;;5001149;28;20053;-77
2024/03/03 04:22:36;;;;;;;0.65;0.55;;;2.10;99.90;;;;;;4984111;28;20504;-77
2024/03/03 04:25:04;;;;;;;0.40;0.40;;;2.10;99.90;;;;;;4969571;28;20053;-78
2024/03/03 04:27:31;;;;;;;0.55;0.50;;;2.00;99.90;;;;;;4983647;28;20061;-77
2024/03/03 04:29:58;;;;;;;0.52;0.52;;;2.00;99.90;;;;;;4968868;28;20053;-78
2024/03/03 04:32:25;;;;;;;0.30;0.30;;;2.00;99.90;;;;;;5000276;28;20053;-78
2024/03/03 04:34:52;;;;;;;0.50;0.50;;;2.00;99.90;;;;;;4969027;28;20086;-78
2024/03/03 04:37:19;;;;;;;0.50;0.50;;;2.00;99.90;;;;;;4984160;28;20056;-77
2024/03/03 04:39:46;;;;;;;0.50;0.50;;;2.00;99.90;;;;;;5001053;28;20505;-78
2024/03/03 04:42:13;;;;;;;0.50;0.50;;;2.00;99.90;;;;;;4983476;28;20053;-78
2024/03/03 04:44:41;;;;;;;0.50;0.50;;;2.00;99.90;;;;;;5002149;28;20135;-78
2024/03/03 04:47:10;;;;;;;0.60;0.60;;;2.00;1.00;;;;;;4989635;28;20061;-77
2024/03/03 04:49:38;;;;;;;0.50;0.50;;;2.00;99.90;;;;;;4934045;28;20503;-76
2024/03/03 04:52:05;;;;;;;0.30;0.30;;;1.90;99.90;;;;;;4964949;28;20059;-78
2024/03/03 04:54:32;;;;;;;0.43;0.43;;;1.90;99.90;;;;;;4982657;28;20509;-77
2024/03/03 04:57:00;;;;;;;0.70;0.50;;;1.90;99.90;;;;;;4963920;28;20120;-77
2024/03/03 04:59:27;;;;;;;0.60;0.60;;;1.90;99.90;;;;;;4933350;28;20053;-78
2024/03/03 05:01:54;;;;;;;0.40;0.40;;;1.90;99.90;;;;;;4949069;28;20081;-77
2024/03/03 05:04:21;;;;;;;0.40;0.40;;;1.90;99.90;;;;;;4965917;28;20058;-77
2024/03/03 05:06:48;;;;;;;1.00;0.43;;;1.80;99.90;;;;;;4983502;28;20430;-78
2024/03/03 05:09:15;;;;;;;0.45;0.45;;;1.80;99.90;;;;;;5005620;28;20107;-77
2024/03/03 05:11:43;;;;;;;0.65;0.60;;;1.80;99.90;;;;;;5003534;28;20069;-78
2024/03/03 05:14:11;;;;;;;0.80;0.60;;;1.80;1.00;;;;;;4973144;28;20053;-77
2024/03/03 05:16:38;;;;;;;0.40;0.40;;;1.80;1.00;;;;;;4952278;28;20113;-78
2024/03/03 05:19:05;;;;;;;0.57;0.40;;;1.80;1.00;;;;;;4985915;28;20050;-78
2024/03/03 05:21:33;;;;;;;0.30;0.30;;;1.80;1.00;;;;;;4968011;28;20096;-78
2024/03/03 05:24:01;;;;;;;0.47;0.47;;;1.90;1.00;;;;;;4952373;28;20050;-77
2024/03/03 05:26:28;;;;;;;0.60;0.40;;;1.90;1.00;;;;;;4951030;28;20058;-78
2024/03/03 05:28:55;;;;;;;0.50;0.50;;;1.90;1.00;;;;;;4937270;28;20050;-78
2024/03/03 05:31:21;;;;;;;0.50;0.50;;;1.80;99.90;;;;;;4952111;28;20058;-78
2024/03/03 05:33:49;;;;;;;0.73;0.50;;;1.80;99.90;;;;;;4964049;28;20060;-78
2024/03/03 05:36:16;;;;;;;0.73;0.50;;;1.80;1.00;;;;;;5000216;28;20046;-77
2024/03/03 05:38:42;;;;;;;0.38;0.38;;;1.80;1.00;;;;;;4968199;28;20112;-78
2024/03/03 05:41:09;;;;;;;0.30;0.30;;;1.80;99.90;;;;;;4985031;28;20057;-79
2024/03/03 05:43:37;;;;;;;0.43;0.43;;;1.80;1.00;;;;;;4951034;28;20089;-78
2024/03/03 05:46:05;;;;;;;0.30;0.30;;;1.80;99.90;;;;;;4967826;28;20058;-78
2024/03/03 05:48:31;;;;;;;0.38;0.38;;;1.80;1.00;;;;;;4985291;28;20046;-78
2024/03/03 05:50:59;;;;;;;0.30;0.30;;;1.70;1.00;;;;;;4952151;28;20050;-78
2024/03/03 05:53:26;;;;;;;0.43;0.40;;;1.70;1.00;;;;;;4951822;28;20054;-78
2024/03/03 05:55:53;;;;;;;0.30;0.30;;;1.70;1.00;;;;;;4951778;28;20061;-78
2024/03/03 05:58:20;;;;;;;0.68;0.50;;;1.70;1.00;;;;;;4935638;28;20516;-78
2024/03/03 06:00:47;;;;;;;0.45;0.45;;;1.70;93.20;;;;;;4952294;28;20050;-79
2024/03/03 06:03:14;;;;;;;0.63;0.60;;;1.70;99.90;;;;;;4956595;28;20414;-78
2024/03/03 06:05:41;;;;;;;0.50;0.45;;;1.70;99.90;;;;;;4985966;28;20960;-78
2024/03/03 06:08:08;;;;;;;0.30;0.30;;;1.80;99.90;;;;;;4966626;28;20113;-79
2024/03/03 06:10:34;;;;;;;0.40;0.40;;;1.70;99.90;;;;;;4949841;28;20050;-78
2024/03/03 06:13:01;;;;;;;0.57;0.50;;;1.70;99.90;;;;;;4965175;28;20116;-78
2024/03/03 06:15:29;;;;;;;0.60;0.50;;;1.70;1.00;;;;;;4950350;28;20069;-78
2024/03/03 06:17:55;;;;;;;0.90;0.50;;;1.60;1.00;;;;;;4973393;28;20050;-78
2024/03/03 06:20:22;;;;;;;0.63;0.40;;;1.60;1.00;;;;;;4964793;28;20082;-78
2024/03/03 06:22:49;;;;;;;0.75;0.35;;;1.60;99.90;;;;;;4971829;28;20050;-78
2024/03/03 06:25:16;;;;;;;0.40;0.40;;;1.50;99.90;;;;;;4950571;28;20132;-78
2024/03/03 06:27:43;;;;;;;0.50;0.50;;;1.60;99.90;;;;;;4964028;28;20072;-78
2024/03/03 06:30:10;;;;;;;0.50;0.50;;;1.60;99.90;;;;;;4934162;28;20560;-78
2024/03/03 06:32:37;;;;;;;0.30;0.30;;;1.50;99.90;;;;;;4946228;28;20544;-79
2024/03/03 06:35:04;;;;;;;0.63;0.50;;;1.50;99.90;;;;;;4942830;28;20486;-79
2024/03/03 06:37:31;;;;;;;0.57;0.52;;;1.50;99.90;;;;;;4942420;28;20102;-78
2024/03/03 06:39:58;;;;;;;0.85;0.60;;;1.40;99.90;;;;;;4927359;29;20142;-79
2024/03/03 06:42:26;;;;;;;0.63;0.40;;;1.40;99.90;;;;;;4926433;29;20121;-78
2024/03/03 06:44:53;;;;;;;1.67;0.63;;;1.40;99.90;;;;;;4926755;29;20102;-78
2024/03/03 06:47:19;;;;;;;0.52;0.50;;;1.40;99.90;;;;;;4926877;29;20061;-78
2024/03/03 06:49:47;;;;;;;0.70;0.60;;;1.40;99.90;;;;;;4943352;28;20104;-77
2024/03/03 06:52:14;;;;;;;0.73;0.50;;;1.50;99.90;;;;;;4927027;28;20051;-77
2024/03/03 06:54:40;;;;;;;0.68;0.43;;;1.50;99.90;;;;;;4943524;28;20616;-78
2024/03/03 06:57:07;;;;;;;1.08;0.70;;;1.50;1.00;;;;;;4942213;28;20142;-79
2024/03/03 06:59:35;;;;;;;1.65;0.70;;;1.50;1.00;;;;;;4934066;28;20141;-78
2024/03/03 07:02:01;;;;;;;2.28;0.93;;;1.50;1.00;;;;;;4944451;28;20169;-78
2024/03/03 07:04:28;;;;;;;1.42;0.95;;;1.60;19.90;;;;;;4951572;28;20047;-79
2024/03/03 07:06:56;;;;;;;0.75;0.63;;;1.60;49.80;;;;;;4951752;28;20074;-81
2024/03/03 07:09:24;;;;;;;0.60;0.60;;;1.60;51.50;;;;;;4926576;29;20066;-79
2024/03/03 07:11:51;;;;;;;1.13;0.80;;;1.60;73.10;;;;;;4924682;29;20062;-78
2024/03/03 07:14:18;;;;;;;1.30;0.82;;;1.70;63.60;;;;;;4959247;28;20137;-78
2024/03/03 07:16:45;;;;;;;0.60;0.60;;;1.70;91.30;;;;;;4958456;28;20055;-78
2024/03/03 07:19:12;;;;;;;1.15;0.90;;;1.80;32.80;;;;;;4960614;28;20095;-78
2024/03/03 07:21:39;;;;;;;1.35;0.82;;;1.80;87.20;;;;;;4944765;28;20050;-78
2024/03/03 07:24:06;;;;;;;0.52;0.52;;;1.80;1.00;;;;;;4928029;29;20134;-78
2024/03/03 07:26:33;;;;;;;0.82;0.63;;;1.90;1.00;;;;;;4920469;28;20421;-79
2024/03/03 07:29:02;;;;;;;1.35;0.88;;;1.90;22.70;;;;;;4961226;28;20055;-79
2024/03/03 07:31:29;;;;;;;1.08;0.70;;;2.00;1.00;;;;;;4960537;28;20683;-79
2024/03/03 07:33:56;;;;;;;0.90;0.80;;;2.00;1.00;;;;;;4960236;28;20054;-78
2024/03/03 07:36:24;;;;;;;0.63;0.52;;;2.10;1.00;;;;;;4958687;28;20248;-78
2024/03/03 07:38:51;;;;;;;0.82;0.73;;;2.20;99.90;;;;;;4961902;28;20117;-77
2024/03/03 07:41:18;;;;;;;0.75;0.63;;;2.20;99.90;;;;;;4962080;28;20178;-78
2024/03/03 07:43:46;;;;;;;0.75;0.70;;;2.20;99.90;;;;;;4941129;28;20110;-77
2024/03/03 07:46:13;;;;;;;1.33;0.70;;;2.30;99.90;;;;;;4958275;28;20046;-77
2024/03/03 07:48:40;;;;;;;1.73;1.48;;;2.40;99.90;;;;;;4939198;28;20053;-78
2024/03/03 07:51:07;;;;;;;0.90;0.70;;;2.40;1.00;;;;;;4954646;28;20074;-78
2024/03/03 07:53:34;;;;;;;0.77;0.70;;;2.40;1.00;;;;;;4961130;28;20073;-78
2024/03/03 07:56:01;;;;;;;0.50;0.50;;;2.50;99.90;;;;;;4959616;28;20043;-79
2024/03/03 07:58:28;;;;;;;0.93;0.73;;;2.50;99.90;;;;;;4963767;28;20097;-82
2024/03/03 08:00:55;;;;;;;0.50;0.50;;;2.50;99.90;;;;;;4948885;28;20049;-86
2024/03/03 08:03:25;;;;;;;1.10;0.65;;;2.50;99.90;;;;;;4945017;29;20718;-84
2024/03/03 08:05:54;;;;;;;0.85;0.60;;;2.60;99.90;;;;;;4949310;28;20149;-85
2024/03/03 08:08:21;;;;;;;0.57;0.47;;;2.60;99.90;;;;;;4950582;28;20057;-85
2024/03/03 08:10:50;;;;;;;0.85;0.70;;;2.60;99.90;;;;;;4946810;29;20119;-85
2024/03/03 08:13:22;;;;;;;0.73;0.60;;;2.70;99.90;;;;;;4968758;28;20054;-84
2024/03/03 08:15:52;;;;;;;0.55;0.47;;;2.70;99.90;;;;;;4973260;28;20043;-85
2024/03/03 08:18:27;;;;;;;0.50;0.50;;;2.80;99.90;;;;;;4937908;28;20047;-84
2024/03/03 08:20:56;;;;;;;0.75;0.60;;;2.90;99.90;;;;;;4929111;29;20051;-83
2024/03/03 08:23:25;;;;;;;0.77;0.65;;;3.00;99.90;;;;;;4938641;28;20062;-84
2024/03/03 08:25:52;;;;;;;0.50;0.50;;;3.10;99.90;;;;;;4946956;28;20054;-84
2024/03/03 08:28:20;;;;;;;0.88;0.77;;;3.20;1.00;;;;;;4963370;28;20072;-84
2024/03/03 08:30:47;;;;;;;1.00;0.70;;;3.40;1.00;;;;;;4965999;28;20062;-84
2024/03/03 08:33:14;;;;;;;0.50;0.50;;;3.50;1.00;;;;;;4985682;28;20054;-84
2024/03/03 08:35:47;;;;;;;0.80;0.57;;;3.60;99.90;;;;;;4967204;28;20786;-83
2024/03/03 08:38:17;;;;;;;0.45;0.45;;;3.70;99.90;;;;;;4981328;28;20738;-83
2024/03/03 08:40:44;;;;;;;0.77;0.70;;;3.90;8.90;;;;;;4982605;28;20050;-84
2024/03/03 08:43:12;;;;;;;0.50;0.50;;;3.90;99.90;;;;;;4964929;28;20107;-85
2024/03/03 08:45:41;;;;;;;0.65;0.65;;;4.00;99.90;;;;;;4990146;28;20108;-84
2024/03/03 08:48:08;;;;;;;0.80;0.70;;;4.10;99.90;;;;;;4990668;28;20053;-84
2024/03/03 08:50:36;;;;;;;0.60;0.60;;;4.20;1.00;;;;;;4989551;28;20143;-84
2024/03/03 08:53:05;;;;;;;0.60;0.60;;;4.30;1.00;;;;;;4972031;28;20732;-84
2024/03/03 08:55:33;;;;;;;0.88;0.85;;;4.40;1.00;;;;;;4959349;28;20122;-84
2024/03/03 08:58:01;;;;;;;0.65;0.65;;;4.50;99.90;;;;;;4955303;28;20045;-84
2024/03/03 09:00:29;;;;;;;0.95;0.80;;;4.60;99.90;;;;;;4953252;28;20428;-86
2024/03/03 09:02:56;;;;;;;1.02;0.85;;;4.70;99.90;;;;;;4981351;28;20043;-84
2024/03/03 09:05:23;;;;;;;0.93;0.73;;;4.80;99.90;;;;;;4976264;28;20058;-88
2024/03/03 09:08:03;;;;;;;1.40;0.90;;;5.00;99.90;;;;;;4969768;28;20052;-86
2024/03/03 09:10:30;;;;;;;1.42;0.70;;;5.00;99.90;;;;;;4967218;28;20061;-86
2024/03/03 09:12:59;;;;;;;0.98;0.88;;;5.00;99.90;;;;;;4970806;28;20057;-85
2024/03/03 09:15:27;;;;;;;0.93;0.70;;;5.10;99.90;;;;;;4962411;28;20802;-85
2024/03/03 09:17:56;;;;;;;1.10;1.00;;;5.20;99.90;;;;;;4955261;28;20085;-86
2024/03/03 09:20:29;;;;;;;1.00;0.70;;;5.20;99.90;;;;;;4977199;28;20064;-86
2024/03/03 09:22:57;;;;;;;0.90;0.80;;;5.30;99.90;;;;;;4957232;28;20057;-80
2024/03/03 09:25:24;;;;;;;1.33;0.80;;;5.40;99.90;;;;;;4986986;28;20046;-78
2024/03/03 09:27:52;;;;;;;0.93;0.70;;;5.40;99.90;;;;;;4989870;28;20084;-85
2024/03/03 09:30:32;;;;;;;1.30;0.90;;;5.50;99.90;;;;;;4975104;28;20061;-84
2024/03/03 09:32:59;;;;;;;1.48;0.90;;;5.50;99.90;;;;;;4973219;28;20069;-86
2024/03/03 09:35:28;;;;;;;1.30;0.93;;;5.60;99.90;;;;;;4940298;28;20109;-86
2024/03/03 09:37:56;;;;;;;0.88;0.85;;;5.70;99.90;;;;;;4955353;28;20621;-86
2024/03/03 09:40:24;;;;;;;1.40;0.95;;;5.70;99.90;;;;;;4957448;28;20041;-84
2024/03/03 09:42:51;;;;;;;0.90;0.77;;;5.80;99.90;;;;;;4974372;28;20876;-87
2024/03/03 09:45:20;;;;;;;1.80;1.05;;;5.80;99.90;;;;;;4974978;28;20502;-86
2024/03/03 09:47:49;;;;;;;1.05;0.88;;;5.80;99.90;;;;;;4974515;28;20488;-85
2024/03/03 09:50:18;;;;;;;0.70;0.70;;;5.80;99.90;;;;;;4975071;28;20056;-88
2024/03/03 09:52:50;;;;;;;0.95;0.77;;;5.80;99.90;;;;;;4975245;28;20054;-89
2024/03/03 09:55:18;;;;;;;1.33;1.02;;;5.80;99.90;;;;;;4955358;28;20050;-89
2024/03/03 09:57:51;;;;;;;1.58;0.88;;;5.90;99.90;;;;;;4969317;28;20062;-88
2024/03/03 10:00:18;;;;;;;1.15;0.73;;;5.90;99.90;;;;;;4975375;28;20149;-87
2024/03/03 10:02:48;;;;;;;0.98;0.88;;;6.00;99.90;;;;;;4973404;28;20052;-88
2024/03/03 10:05:16;;;;;;;0.90;0.90;;;6.00;99.90;;;;;;4955994;28;20137;-88
2024/03/03 10:08:00;;;;;;;1.05;0.80;;;6.10;99.90;;;;;;4970133;28;20062;-87
2024/03/03 10:10:30;;;;;;;1.33;0.82;;;6.10;99.90;;;;;;4975850;28;20058;-90
2024/03/03 10:13:00;;;;;;;0.70;0.70;;;6.20;99.90;;;;;;4973917;28;20046;-89
2024/03/03 10:15:27;;;;;;;0.80;0.70;;;6.20;99.90;;;;;;4970069;28;20058;-85
2024/03/03 10:18:02;;;;;;;1.77;0.70;;;6.30;97.10;;;;;;4961302;28;20058;-88
2024/03/03 10:20:32;;;;;;;1.55;0.85;;;6.30;91.40;;;;;;4956005;28;20594;-90
2024/03/03 10:23:05;;;;;;;1.00;0.70;;;6.40;88.00;;;;;;4973963;28;20104;-88
2024/03/03 10:25:32;;;;;;;1.25;0.90;;;6.40;82.90;;;;;;4973962;28;20065;-89
2024/03/03 10:28:15;;;;;;;1.02;0.93;;;6.50;74.30;;;;;;4942876;28;20073;-87
2024/03/03 10:30:42;;;;;;;0.75;0.75;;;6.50;78.50;;;;;;4940575;28;20138;-89
2024/03/03 10:33:10;;;;;;;1.23;1.00;;;6.60;70.80;;;;;;4976101;28;20662;-89
2024/03/03 10:35:37;;;;;;;0.65;0.65;;;6.60;70.50;;;;;;4974212;28;20054;-88
2024/03/03 10:38:07;;;;;;;0.73;0.60;;;6.60;60.40;;;;;;4961638;28;20052;-87
2024/03/03 10:40:34;;;;;;;1.17;0.90;;;6.60;62.90;;;;;;4957923;28;20081;-86
2024/03/03 10:43:01;;;;;;;0.70;0.70;;;6.60;56.80;;;;;;4955010;28;20069;-87
2024/03/03 10:45:29;;;;;;;1.10;1.00;;;6.80;58.30;;;;;;4938709;28;20138;-87
2024/03/03 10:47:57;;;;;;;1.02;0.90;;;6.80;56.30;;;;;;4953511;28;20092;-88
2024/03/03 10:50:26;;;;;;;0.85;0.75;;;7.00;52.60;;;;;;4957623;28;20058;-87
2024/03/03 10:52:57;;;;;;;1.48;1.20;;;7.10;45.20;;;;;;4972030;28;20557;-85
2024/03/03 10:55:26;;;;;;;1.58;1.00;;;7.10;40.90;;;;;;4953799;28;20046;-87
2024/03/03 10:57:54;;;;;;;1.15;0.90;;;7.10;33.90;;;;;;4953990;28;20050;-86
2024/03/03 11:00:30;;;;;;;1.27;0.85;;;7.20;43.70;;;;;;4953907;28;20587;-86
2024/03/03 11:03:02;;;;;;;0.75;0.70;;;7.30;40.50;;;;;;4953860;28;20283;-86
2024/03/03 11:05:29;;;;;;;1.25;1.08;;;7.40;23.20;;;;;;4937506;28;20120;-87
2024/03/03 11:07:59;;;;;;;1.35;1.10;;;7.50;18.80;;;;;;4953818;28;20840;-88
2024/03/03 11:10:31;;;;;;;0.70;0.70;;;7.70;3.70;;;;;;4972161;28;20526;-88
2024/03/03 11:12:59;;;;;;;0.80;0.80;;;7.90;5.10;;;;;;4971158;28;20081;-87
2024/03/03 11:15:27;;;;;;;1.08;0.98;;;8.00;1.00;;;;;;4948275;28;20462;-87
2024/03/03 11:18:01;;;;;;;1.38;0.90;;;8.10;1.00;;;;;;4938090;28;20058;-87
2024/03/03 11:20:35;;;;;;;1.55;0.90;;;8.30;1.00;;;;;;4952850;28;20937;-87
2024/03/03 11:23:10;;;;;;;0.88;0.77;;;8.40;1.00;;;;;;4953260;28;20077;-88
2024/03/03 11:25:59;;;;;;;1.42;1.20;;;8.60;1.00;;;;;;4975615;28;20069;-86
2024/03/03 11:28:28;;;;;;;0.70;0.60;;;8.70;1.00;;;;;;4972693;28;20050;-89
2024/03/03 11:31:15;;;;;;;0.80;0.80;;;8.80;1.00;;;;;;4973439;28;20058;-85
2024/03/03 11:33:43;;;;;;;1.30;1.02;;;9.00;1.00;;;;;;4974561;28;20058;-85
2024/03/03 11:36:10;;;;;;;1.20;1.02;;;9.00;1.00;;;;;;4974162;28;20120;-86
2024/03/03 11:38:44;;;;;;;0.90;0.90;;;9.20;1.00;;;;;;4973607;28;20065;-87
2024/03/03 11:41:11;;;;;;;1.25;0.88;;;9.30;1.00;;;;;;4941914;28;20062;-86
2024/03/03 11:43:42;;;;;;;1.23;1.10;;;9.30;1.00;;;;;;4978961;28;20042;-85
2024/03/03 11:46:11;;;;;;;1.45;1.00;;;9.40;1.00;;;;;;4937547;28;20058;-84
2024/03/03 11:48:41;;;;;;;0.70;0.70;;;9.60;1.00;;;;;;4963130;28;20120;-88
2024/03/03 11:51:38;;;;;;;1.50;1.08;;;9.70;1.00;;;;;;4968280;28;20058;-87
2024/03/03 11:54:14;;;;;;;1.02;0.90;;;9.80;1.00;;;;;;4976095;28;20046;-88
2024/03/03 11:56:49;;;;;;;1.02;0.80;;;9.90;1.00;;;;;;4965385;28;20526;-88
2024/03/03 11:59:19;;;;;;;1.20;0.82;;;9.90;1.00;;;;;;4973198;28;20448;-87
2024/03/03 12:01:47;;;;;;;0.93;0.88;;;9.90;1.00;;;;;;4973920;28;20056;-87
2024/03/03 12:04:17;;;;;;;1.00;0.90;;;10.10;1.00;;;;;;4969997;28;20142;-88
2024/03/03 12:06:46;;;;;;;1.30;1.10;;;10.30;1.00;;;;;;4965917;28;20140;-86
2024/03/03 12:09:22;;;;;;;0.73;0.73;;;10.20;1.00;;;;;;4973827;28;20088;-86
2024/03/03 12:12:00;;;;;;;1.20;1.10;;;10.30;1.00;;;;;;4969569;28;20062;-86
2024/03/03 12:14:28;;;;;;;1.25;0.95;;;10.30;1.00;;;;;;4966509;28;20057;-87
2024/03/03 12:16:55;;;;;;;0.80;0.80;;;10.30;1.00;;;;;;4971368;28;20496;-86
2024/03/03 12:19:31;;;;;;;0.85;0.85;;;10.40;1.00;;;;;;4973726;28;20062;-86
2024/03/03 12:21:58;;;;;;;0.90;0.80;;;10.50;1.00;;;;;;4986540;28;20100;-85
2024/03/03 12:24:26;;;;;;;1.25;1.15;;;10.60;1.00;;;;;;4951156;28;20050;-80
2024/03/03 12:26:53;;;;;;;1.25;0.90;;;10.70;1.00;;;;;;4986350;28;20058;-82
2024/03/03 12:29:21;;;;;;;1.63;1.00;;;10.90;1.00;;;;;;4959576;28;20509;-83
2024/03/03 12:31:49;;;;;;;7.97;2.08;;;10.90;1.00;;;;;;4955313;28;20149;-83
2024/03/03 12:34:17;;;;;;;2.85;1.50;;;10.90;1.00;;;;;;4937851;28;20069;-83
2024/03/03 12:36:44;;;;;;;12.45;4.57;;;10.80;1.00;;;;;;4939871;28;20055;-83
2024/03/03 12:39:11;;;;;;;7.93;2.35;;;11.00;1.00;;;;;;4938495;29;20055;-81
2024/03/03 12:41:38;;;;;;;1.95;1.17;;;11.30;1.00;;;;;;4940085;28;20059;-81
2024/03/03 12:44:05;;;;;;;1.25;0.88;;;11.50;1.00;;;;;;4956061;28;20620;-82
2024/03/03 12:46:32;;;;;;;1.08;0.80;;;11.80;1.00;;;;;;4957269;28;20051;-82
2024/03/03 12:48:59;;;;;;;0.60;0.60;;;11.90;1.00;;;;;;4940538;28;20737;-80
2024/03/03 12:51:26;;;;;;;0.73;0.73;;;12.00;1.00;;;;;;4960656;28;20082;-82
2024/03/03 12:53:53;;;;;;;1.77;0.80;;;12.00;1.00;;;;;;4959245;28;20119;-81
2024/03/03 12:56:21;;;;;;;1.30;0.70;;;12.10;1.00;;;;;;4959138;28;20062;-80
2024/03/03 12:58:49;;;;;;;0.50;0.50;;;12.00;1.00;;;;;;4958901;28;20092;-77
2024/03/03 13:01:17;;;;;;;0.60;0.60;;;12.00;1.00;;;;;;4962069;28;20051;-84
2024/03/03 13:03:45;;;;;;;0.80;0.63;;;12.00;1.00;;;;;;4943022;28;20050;-83
2024/03/03 13:06:14;;;;;;;0.70;0.70;;;12.10;1.00;;;;;;4944393;28;20560;-82